Grantfork, Illinois
Current Conditions -  °F | °C
As of 6:58 PM on Tuesday 21 Oct 2014 (Local Time) from KBLV Reporting Station
Clear Clear  
Wind Chill: 57°   Ceiling: Unl
Heat Index: 57°   Visibility: 10mi
Dew Point: 44°   Wind: 5mph
Humidity: 62%   Direction: 30°NNE
Pressure: 30.13"   Gusts: NA
Location:  38.8004°N, 89.6795°W
Report Text: KBLV 212358Z AUTO 03004KT 10SM CLR 14/07 A3013 RMK AO2 SLP207 T01400068 10199 20140 53010
Loading
Personal Weather Stations






























Interactive Weather Map
Tropical Storm Tracking
New forecast layout! Learn more

10-Day Weather Forecast

Advertisements
Track Severe Weather on mobile